createdAt,value
2017-07-28T00:01:40.645Z,89.09
2017-07-28T00:04:08.988Z,89.03
2017-07-28T00:06:37.335Z,89.39
2017-07-28T00:09:05.667Z,88.49
2017-07-28T00:11:34.042Z,88.63
2017-07-28T00:14:02.398Z,88.82
2017-07-28T00:16:30.771Z,89.53
2017-07-28T00:18:59.122Z,89.64
2017-07-28T00:21:27.439Z,89.49
2017-07-28T00:23:55.785Z,89.32
2017-07-28T00:26:24.122Z,89.81
2017-07-28T00:28:52.488Z,88.81
2017-07-28T00:31:20.820Z,89.07
2017-07-28T00:33:49.182Z,88.61
2017-07-28T00:36:17.583Z,88.53
2017-07-28T00:38:45.900Z,89.27
2017-07-28T00:41:14.335Z,88.41
2017-07-28T00:43:42.668Z,88.77
2017-07-28T00:46:11.013Z,88.94
2017-07-28T00:48:39.344Z,88.91
2017-07-28T00:51:07.964Z,88.90
2017-07-28T00:53:36.309Z,87.97
2017-07-28T00:56:05.273Z,89.26
2017-07-28T00:58:34.352Z,89.40
2017-07-28T01:01:02.667Z,89.29
2017-07-28T01:03:31.020Z,89.51
2017-07-28T01:05:59.351Z,89.88
2017-07-28T01:08:27.974Z,88.96
2017-07-28T01:10:56.310Z,89.11
2017-07-28T01:13:24.666Z,88.90
2017-07-28T01:15:53.029Z,89.00
2017-07-28T01:18:21.361Z,88.92
2017-07-28T01:20:49.709Z,88.31
2017-07-28T01:23:18.039Z,88.71
2017-07-28T01:25:46.496Z,88.79
2017-07-28T01:28:14.836Z,89.11
2017-07-28T01:30:43.170Z,88.80
2017-07-28T01:33:11.797Z,89.36
2017-07-28T01:35:40.111Z,88.59
2017-07-28T01:38:08.448Z,88.64
2017-07-28T01:40:36.792Z,88.43
2017-07-28T01:43:05.117Z,88.74
2017-07-28T01:45:33.452Z,88.63
2017-07-28T01:48:01.758Z,88.94
2017-07-28T01:50:30.107Z,89.00
2017-07-28T01:52:58.453Z,89.04
2017-07-28T01:55:26.772Z,89.93
2017-07-28T01:57:55.396Z,89.62
2017-07-28T02:00:23.716Z,88.82
2017-07-28T02:02:52.047Z,88.42
2017-07-28T02:05:20.466Z,89.14
2017-07-28T02:07:48.814Z,89.31
2017-07-28T02:10:17.174Z,90.16
2017-07-28T02:12:45.509Z,89.09
2017-07-28T02:15:13.859Z,88.29
2017-07-28T02:17:42.997Z,89.29
2017-07-28T02:20:11.329Z,89.35
2017-07-28T02:22:39.943Z,88.74
2017-07-28T02:25:08.292Z,88.41
2017-07-28T02:27:36.701Z,89.35
2017-07-28T02:30:05.061Z,89.48
2017-07-28T02:32:33.384Z,89.00
2017-07-28T02:35:01.767Z,89.27
2017-07-28T02:37:30.097Z,89.73
2017-07-28T02:39:58.453Z,89.02
2017-07-28T02:42:26.806Z,88.60
2017-07-28T02:44:55.144Z,88.75
2017-07-28T02:47:23.495Z,89.22
2017-07-28T02:49:51.807Z,89.11
2017-07-28T02:52:20.153Z,89.36
2017-07-28T02:54:48.507Z,89.74
2017-07-28T02:57:16.871Z,89.50
2017-07-28T02:59:45.192Z,89.41
2017-07-28T03:02:13.569Z,89.38
2017-07-28T03:04:41.890Z,89.48
2017-07-28T03:07:10.219Z,90.03
2017-07-28T03:09:38.586Z,88.89
2017-07-28T03:12:06.918Z,89.91
2017-07-28T03:14:35.267Z,90.04
2017-07-28T03:17:03.591Z,89.67
2017-07-28T03:19:31.942Z,89.29
2017-07-28T03:22:00.302Z,89.38
2017-07-28T03:24:28.615Z,88.80
2017-07-28T03:26:56.967Z,89.05
2017-07-28T03:29:25.280Z,88.87
2017-07-28T03:31:53.628Z,88.52
2017-07-28T03:34:21.989Z,89.00
2017-07-28T03:36:50.329Z,89.22
2017-07-28T03:39:18.692Z,89.73
2017-07-28T03:41:47.048Z,89.07
2017-07-28T03:44:15.393Z,88.85
2017-07-28T03:46:43.737Z,88.34
2017-07-28T03:49:12.075Z,88.34
2017-07-28T03:51:40.678Z,88.02
2017-07-28T03:54:09.023Z,88.87
2017-07-28T03:56:37.334Z,88.47
2017-07-28T03:59:05.938Z,88.41
2017-07-28T04:01:34.266Z,88.09
2017-07-28T04:04:02.583Z,88.13
2017-07-28T04:06:30.923Z,88.36
2017-07-28T04:08:59.248Z,88.09
2017-07-28T04:11:27.597Z,87.85
2017-07-28T04:13:55.918Z,87.88
2017-07-28T04:16:24.260Z,87.86
2017-07-28T04:18:52.613Z,88.38
2017-07-28T04:21:20.925Z,88.19
2017-07-28T04:23:49.537Z,88.95
2017-07-28T04:26:17.862Z,88.48
2017-07-28T04:28:46.179Z,88.08
2017-07-28T04:31:14.533Z,88.89
2017-07-28T04:33:42.879Z,88.27
2017-07-28T04:36:11.234Z,88.04
2017-07-28T04:38:39.564Z,88.19
2017-07-28T04:41:07.917Z,88.20
2017-07-28T04:43:36.269Z,88.28
2017-07-28T04:46:04.593Z,88.25
2017-07-28T04:48:32.960Z,88.38
2017-07-28T04:51:01.280Z,89.17
2017-07-28T04:53:29.634Z,89.35
2017-07-28T04:55:57.997Z,89.87
2017-07-28T04:58:26.350Z,90.32
2017-07-28T05:00:54.700Z,90.61
2017-07-28T05:03:23.064Z,91.25
2017-07-28T05:05:51.432Z,91.54
2017-07-28T05:08:19.785Z,91.79
2017-07-28T05:10:48.121Z,91.84
2017-07-28T05:13:17.227Z,91.67
2017-07-28T05:15:45.586Z,91.81
2017-07-28T05:18:13.923Z,91.85
2017-07-28T05:20:42.280Z,91.23
2017-07-28T05:23:10.618Z,91.46
2017-07-28T05:25:38.967Z,91.50
2017-07-28T05:28:07.282Z,91.31
2017-07-28T05:30:35.629Z,90.76
2017-07-28T05:33:03.975Z,90.85
2017-07-28T05:35:32.317Z,90.38
2017-07-28T05:38:01.031Z,89.28
2017-07-28T05:40:29.356Z,90.30
2017-07-28T05:42:57.696Z,90.80
2017-07-28T05:45:26.822Z,90.62
2017-07-28T05:47:55.158Z,90.30
2017-07-28T05:50:23.862Z,90.51
2017-07-28T05:52:52.192Z,90.38
2017-07-28T05:55:20.502Z,90.79
2017-07-28T05:57:49.613Z,90.28
2017-07-28T06:00:17.963Z,90.63
2017-07-28T06:02:46.319Z,90.04
2017-07-28T06:05:14.648Z,90.46
2017-07-28T06:07:43.767Z,89.87
2017-07-28T06:10:12.113Z,89.81
2017-07-28T06:12:40.452Z,89.33
2017-07-28T06:15:08.792Z,89.58
2017-07-28T06:17:37.125Z,88.50
2017-07-28T06:20:05.477Z,89.25
2017-07-28T06:22:33.811Z,88.53
2017-07-28T06:25:02.137Z,88.90
2017-07-28T06:27:30.494Z,89.66
2017-07-28T06:29:58.820Z,88.32
2017-07-28T06:32:27.153Z,89.12
2017-07-28T06:34:55.508Z,88.04
2017-07-28T06:37:24.606Z,87.84
2017-07-28T06:39:52.953Z,87.17
2017-07-28T06:42:21.305Z,85.95
2017-07-28T06:44:49.637Z,85.12
2017-07-28T06:47:17.978Z,86.88
2017-07-28T06:49:46.306Z,87.49
2017-07-28T06:52:14.666Z,86.08
2017-07-28T06:54:43.030Z,85.45
2017-07-28T06:57:11.380Z,85.04
2017-07-28T06:59:39.734Z,85.82
2017-07-28T07:02:08.064Z,85.78
2017-07-28T07:04:36.797Z,85.08
2017-07-28T07:07:05.115Z,83.40
2017-07-28T07:09:33.447Z,83.53
2017-07-28T07:12:02.555Z,84.03
2017-07-28T07:14:30.890Z,83.80
2017-07-28T07:16:59.244Z,82.63
2017-07-28T07:19:27.554Z,82.69
2017-07-28T07:21:55.898Z,84.03
2017-07-28T07:24:24.248Z,84.06
2017-07-28T07:26:52.570Z,83.45
2017-07-28T07:29:20.933Z,83.76
2017-07-28T07:31:49.276Z,85.04
2017-07-28T07:34:17.676Z,81.22
2017-07-28T07:36:46.038Z,81.45
2017-07-28T07:39:14.370Z,84.66
2017-07-28T07:41:42.749Z,81.62
2017-07-28T07:44:11.073Z,81.10
2017-07-28T07:46:40.217Z,84.16
2017-07-28T07:49:08.560Z,81.52
2017-07-28T07:51:36.901Z,79.99
2017-07-28T07:54:05.625Z,83.02
2017-07-28T07:56:33.957Z,79.44
2017-07-28T07:59:02.317Z,80.21
2017-07-28T08:01:30.657Z,79.83
2017-07-28T08:03:59.029Z,80.56
2017-07-28T08:06:29.278Z,78.35
2017-07-28T08:08:57.614Z,78.58
2017-07-28T08:11:25.964Z,79.90
2017-07-28T08:13:54.374Z,77.45
2017-07-28T08:16:22.718Z,78.23
2017-07-28T08:18:51.098Z,77.50
2017-07-28T08:21:19.446Z,76.77
2017-07-28T08:23:47.815Z,76.85
2017-07-28T08:26:16.173Z,77.86
2017-07-28T08:28:44.516Z,76.90
2017-07-28T08:31:12.893Z,79.20
2017-07-28T08:33:41.237Z,76.44
2017-07-28T08:36:09.589Z,74.77
2017-07-28T08:38:37.926Z,73.15
2017-07-28T08:41:06.258Z,72.54
2017-07-28T08:43:34.602Z,76.89
2017-07-28T08:46:03.442Z,74.13
2017-07-28T08:48:31.767Z,75.67
2017-07-28T08:51:00.100Z,75.80
2017-07-28T08:53:29.220Z,78.86
2017-07-28T08:55:58.441Z,75.40
2017-07-28T08:58:26.792Z,75.47
2017-07-28T09:00:55.133Z,74.95
2017-07-28T09:03:23.463Z,77.40
2017-07-28T09:05:51.800Z,77.08
2017-07-28T09:08:20.167Z,75.08
2017-07-28T09:10:48.522Z,74.79
2017-07-28T09:13:16.855Z,75.36
2017-07-28T09:15:45.198Z,74.49
2017-07-28T09:18:13.539Z,73.77
2017-07-28T09:20:41.900Z,74.38
2017-07-28T09:23:10.248Z,72.75
2017-07-28T09:25:38.588Z,71.98
2017-07-28T09:28:06.950Z,71.98
2017-07-28T09:30:35.289Z,72.45
2017-07-28T09:33:03.889Z,71.82
2017-07-28T09:35:32.220Z,70.82
2017-07-28T09:38:00.549Z,70.40
2017-07-28T09:40:29.659Z,69.09
2017-07-28T09:42:57.983Z,68.86
2017-07-28T09:45:26.327Z,71.00
2017-07-28T09:47:54.688Z,69.00
2017-07-28T09:50:23.780Z,69.09
2017-07-28T09:52:52.138Z,68.41
2017-07-28T09:55:20.468Z,69.01
2017-07-28T09:57:48.821Z,66.95
2017-07-28T10:00:17.926Z,69.59
2017-07-28T10:02:46.265Z,67.72
2017-07-28T10:05:14.603Z,66.50
2017-07-28T10:07:42.924Z,65.66
2017-07-28T10:10:11.730Z,68.99
2017-07-28T10:12:40.074Z,67.68
2017-07-28T10:15:08.422Z,65.63
2017-07-28T10:17:37.721Z,65.16
2017-07-28T10:20:06.085Z,65.22
2017-07-28T10:22:35.254Z,66.17
2017-07-28T10:25:03.622Z,64.80
2017-07-28T10:27:31.946Z,66.58
2017-07-28T10:30:00.299Z,65.33
2017-07-28T10:32:28.638Z,66.09
2017-07-28T10:34:56.972Z,64.09
2017-07-28T10:37:25.326Z,63.97
2017-07-28T10:39:53.671Z,63.44
2017-07-28T10:42:21.988Z,63.35
2017-07-28T10:44:50.361Z,66.57
2017-07-28T10:47:18.712Z,64.87
2017-07-28T10:49:47.028Z,63.93
2017-07-28T10:52:15.382Z,63.36
2017-07-28T10:54:43.724Z,65.12
2017-07-28T10:57:12.075Z,63.98
2017-07-28T10:59:40.429Z,63.97
2017-07-28T11:02:08.780Z,64.26
2017-07-28T11:04:37.134Z,65.03
2017-07-28T11:07:05.467Z,63.09
2017-07-28T11:09:33.784Z,63.67
2017-07-28T11:12:02.488Z,62.27
2017-07-28T11:14:30.827Z,63.25
2017-07-28T11:16:59.147Z,63.95
2017-07-28T11:19:27.483Z,61.41
2017-07-28T11:21:55.826Z,60.63
2017-07-28T11:24:24.193Z,61.69
2017-07-28T11:26:52.542Z,60.82
2017-07-28T11:29:20.889Z,62.13
2017-07-28T11:31:49.245Z,63.30
2017-07-28T11:34:17.582Z,61.34
2017-07-28T11:36:45.931Z,61.21
2017-07-28T11:39:14.273Z,60.32
2017-07-28T11:41:42.659Z,62.75
2017-07-28T11:44:11.019Z,60.92
2017-07-28T11:46:39.375Z,58.31
2017-07-28T11:49:08.176Z,59.38
2017-07-28T11:51:36.505Z,59.89
2017-07-28T11:54:04.822Z,60.73
2017-07-28T11:56:34.072Z,60.48
2017-07-28T11:59:02.392Z,59.78
2017-07-28T12:01:30.744Z,57.15
2017-07-28T12:03:59.066Z,57.42
2017-07-28T12:06:27.423Z,57.44
2017-07-28T12:08:55.794Z,57.80
2017-07-28T12:11:24.125Z,59.04
2017-07-28T12:13:52.530Z,59.23
2017-07-28T12:16:20.851Z,57.25
2017-07-28T12:18:49.186Z,57.15
2017-07-28T12:21:17.530Z,57.10
2017-07-28T12:23:46.804Z,58.16
2017-07-28T12:26:15.143Z,58.26
2017-07-28T12:28:43.505Z,58.11
2017-07-28T12:31:11.822Z,57.50
2017-07-28T12:33:40.166Z,58.33
2017-07-28T12:36:08.499Z,56.90
2017-07-28T12:38:36.845Z,55.49
2017-07-28T12:41:05.209Z,55.47
2017-07-28T12:43:33.544Z,55.65
2017-07-28T12:46:02.457Z,55.50
2017-07-28T12:48:30.785Z,55.52
2017-07-28T12:50:59.121Z,56.02
2017-07-28T12:53:28.247Z,55.30
2017-07-28T12:55:56.584Z,55.58
2017-07-28T12:58:25.281Z,54.87
2017-07-28T13:00:53.619Z,55.28
2017-07-28T13:03:21.958Z,55.16
2017-07-28T13:05:50.704Z,56.19
2017-07-28T13:08:19.060Z,56.75
2017-07-28T13:10:47.418Z,54.99
2017-07-28T13:13:15.757Z,54.19
2017-07-28T13:15:44.862Z,53.51
2017-07-28T13:18:13.221Z,52.37
2017-07-28T13:20:41.566Z,51.23
2017-07-28T13:23:09.920Z,52.16
2017-07-28T13:25:38.270Z,54.11
2017-07-28T13:28:07.393Z,52.30
2017-07-28T13:30:36.055Z,54.98
2017-07-28T13:33:04.395Z,52.04
2017-07-28T13:35:32.739Z,50.93
2017-07-28T13:38:01.080Z,49.99
2017-07-28T13:40:29.408Z,51.46
2017-07-28T13:42:57.761Z,50.58
2017-07-28T13:45:26.122Z,51.06
2017-07-28T13:47:54.460Z,51.31
2017-07-28T13:50:22.808Z,50.52
2017-07-28T13:52:51.142Z,50.80
2017-07-28T13:55:19.783Z,50.65
2017-07-28T13:57:48.124Z,51.49
2017-07-28T14:00:16.839Z,52.03
2017-07-28T14:02:45.181Z,53.20
2017-07-28T14:05:13.523Z,51.47
2017-07-28T14:07:41.878Z,52.29
2017-07-28T14:10:10.216Z,52.95
2017-07-28T14:12:38.535Z,54.81
2017-07-28T14:15:06.869Z,53.42
2017-07-28T14:17:35.210Z,55.07
2017-07-28T14:20:03.953Z,54.73
2017-07-28T14:22:32.288Z,52.97
2017-07-28T14:25:00.638Z,53.20
2017-07-28T14:27:29.103Z,55.26
2017-07-28T14:29:57.444Z,52.51
2017-07-28T14:32:26.200Z,52.46
2017-07-28T14:34:54.544Z,52.70
2017-07-28T14:37:22.873Z,53.63
2017-07-28T14:39:51.214Z,55.57
2017-07-28T14:42:20.306Z,55.18
2017-07-28T14:44:48.999Z,56.37
2017-07-28T14:47:17.314Z,57.85
2017-07-28T14:49:45.650Z,55.28
2017-07-28T14:52:14.770Z,56.25
2017-07-28T14:54:43.110Z,54.93
2017-07-28T14:57:11.447Z,54.42
2017-07-28T14:59:39.783Z,55.03
2017-07-28T15:02:08.888Z,54.34
2017-07-28T15:04:37.216Z,55.14
2017-07-28T15:07:05.558Z,55.95
2017-07-28T15:09:33.888Z,55.13
2017-07-28T15:12:02.712Z,54.83
2017-07-28T15:14:31.037Z,54.34
2017-07-28T15:16:59.378Z,52.83
2017-07-28T15:19:28.506Z,53.51
2017-07-28T15:21:56.842Z,53.30
2017-07-28T15:24:25.202Z,53.40
2017-07-28T15:26:53.533Z,54.19
2017-07-28T15:29:21.894Z,55.12
2017-07-28T15:31:51.019Z,55.68
2017-07-28T15:34:19.327Z,56.99
2017-07-28T15:36:47.685Z,55.86
2017-07-28T15:39:16.057Z,52.72
2017-07-28T15:41:44.411Z,51.33
2017-07-28T15:44:12.815Z,49.91
2017-07-28T15:46:41.195Z,49.03
2017-07-28T15:49:09.549Z,50.12
2017-07-28T15:51:38.657Z,51.53
2017-07-28T15:54:07.025Z,48.90
2017-07-28T15:56:35.362Z,48.38
2017-07-28T15:59:03.681Z,48.78
2017-07-28T16:01:32.800Z,49.28
2017-07-28T16:04:01.134Z,48.94
2017-07-28T16:06:29.471Z,48.65
2017-07-28T16:08:57.807Z,49.18
2017-07-28T16:11:26.891Z,49.27
2017-07-28T16:13:55.231Z,49.55
2017-07-28T16:16:23.567Z,50.68
2017-07-28T16:18:52.673Z,50.01
2017-07-28T16:21:21.021Z,51.11
2017-07-28T16:23:49.362Z,49.73
2017-07-28T16:26:17.723Z,48.32
2017-07-28T16:28:46.067Z,49.05
2017-07-28T16:31:14.407Z,48.95
2017-07-28T16:33:42.799Z,48.23
2017-07-28T16:36:11.119Z,48.24
2017-07-28T16:38:39.479Z,48.51
2017-07-28T16:41:07.840Z,49.19
2017-07-28T16:43:36.170Z,49.11
2017-07-28T16:46:04.511Z,49.62
2017-07-28T16:48:32.853Z,51.15
2017-07-28T16:51:01.208Z,48.22
2017-07-28T16:53:29.572Z,48.27
2017-07-28T16:55:58.680Z,49.85
2017-07-28T16:58:27.017Z,50.00
2017-07-28T17:00:55.371Z,49.08
2017-07-28T17:03:23.719Z,49.71
2017-07-28T17:05:52.066Z,50.57
2017-07-28T17:08:21.086Z,52.74
2017-07-28T17:10:50.243Z,50.30
2017-07-28T17:13:18.606Z,48.59
2017-07-28T17:15:46.955Z,48.40
2017-07-28T17:18:15.295Z,46.35
2017-07-28T17:20:43.638Z,46.79
2017-07-28T17:23:12.251Z,47.64
2017-07-28T17:25:40.591Z,49.05
2017-07-28T17:28:08.943Z,50.97
2017-07-28T17:30:37.297Z,51.50
2017-07-28T17:33:05.610Z,53.38
2017-07-28T17:35:33.967Z,50.08
2017-07-28T17:38:02.298Z,53.54
2017-07-28T17:40:30.643Z,53.68
2017-07-28T17:42:59.759Z,53.17
2017-07-28T17:45:28.091Z,52.94
2017-07-28T17:47:56.472Z,54.23
2017-07-28T17:50:24.825Z,53.56
2017-07-28T17:52:53.173Z,55.82
2017-07-28T17:55:21.516Z,56.49
2017-07-28T17:57:49.856Z,55.23
2017-07-28T18:00:19.515Z,57.86
2017-07-28T18:02:48.638Z,57.52
2017-07-28T18:05:16.981Z,59.19
2017-07-28T18:07:45.330Z,58.87
2017-07-28T18:10:13.668Z,60.72
2017-07-28T18:12:42.030Z,61.75
2017-07-28T18:15:11.126Z,63.20
2017-07-28T18:17:39.487Z,63.51
2017-07-28T18:20:07.837Z,63.54
2017-07-28T18:22:36.187Z,63.87
2017-07-28T18:25:04.524Z,64.11
2017-07-28T18:27:32.869Z,65.51
2017-07-28T18:30:01.256Z,65.12
2017-07-28T18:32:29.613Z,65.87
2017-07-28T18:34:57.935Z,66.68
2017-07-28T18:37:26.293Z,65.89
2017-07-28T18:39:54.634Z,67.27
2017-07-28T18:42:22.982Z,68.05
2017-07-28T18:44:51.358Z,68.54
2017-07-28T18:47:19.738Z,68.97
2017-07-28T18:49:48.066Z,69.51
2017-07-28T18:52:16.851Z,70.16
2017-07-28T18:54:45.191Z,70.61
2017-07-28T18:57:13.532Z,70.50
2017-07-28T18:59:41.897Z,70.93
2017-07-28T19:02:10.239Z,71.39
2017-07-28T19:04:39.355Z,71.72
2017-07-28T19:07:07.692Z,72.36
2017-07-28T19:09:36.037Z,72.10
2017-07-28T19:12:04.405Z,73.03
2017-07-28T19:14:32.728Z,72.77
2017-07-28T19:17:01.055Z,73.41
2017-07-28T19:19:29.409Z,74.27
2017-07-28T19:21:57.741Z,74.49
2017-07-28T19:24:26.095Z,75.19
2017-07-28T19:26:54.458Z,75.51
2017-07-28T19:29:22.823Z,76.71
2017-07-28T19:31:53.262Z,77.55
2017-07-28T19:34:22.369Z,77.53
2017-07-28T19:36:51.081Z,77.56
2017-07-28T19:39:19.421Z,77.40
2017-07-28T19:41:47.768Z,77.99
2017-07-28T19:44:16.522Z,78.31
2017-07-28T19:46:44.861Z,78.76
2017-07-28T19:49:13.563Z,79.26
2017-07-28T19:51:41.904Z,78.45
2017-07-28T19:54:10.249Z,78.18
2017-07-28T19:56:38.606Z,77.61
2017-07-28T19:59:07.722Z,78.85
2017-07-28T20:01:36.556Z,79.00
2017-07-28T20:04:05.333Z,79.30
2017-07-28T20:06:33.678Z,79.99
2017-07-28T20:09:02.982Z,79.60
2017-07-28T20:11:31.600Z,79.16
2017-07-28T20:13:59.935Z,79.39
2017-07-28T20:16:28.287Z,79.60
2017-07-28T20:18:56.647Z,80.20
2017-07-28T20:21:25.012Z,80.65
2017-07-28T20:23:53.472Z,80.12
2017-07-28T20:26:22.412Z,81.04
2017-07-28T20:28:51.427Z,80.25
2017-07-28T20:31:20.387Z,80.10
2017-07-28T20:33:49.330Z,80.41
2017-07-28T20:36:17.807Z,80.31
2017-07-28T20:38:46.190Z,80.27
2017-07-28T20:41:14.544Z,80.72
2017-07-28T20:43:42.919Z,80.53
2017-07-28T20:46:11.251Z,80.68
2017-07-28T20:48:39.610Z,80.57
2017-07-28T20:51:07.950Z,81.11
2017-07-28T20:53:36.937Z,81.08
2017-07-28T20:56:05.922Z,81.31
2017-07-28T20:58:34.981Z,81.39
2017-07-28T21:01:04.255Z,81.49
2017-07-28T21:03:33.007Z,81.78
2017-07-28T21:06:01.357Z,81.76
2017-07-28T21:08:30.948Z,81.44
2017-07-28T21:10:59.297Z,81.70
2017-07-28T21:13:27.650Z,80.76
2017-07-28T21:15:56.000Z,80.16
2017-07-28T21:18:24.333Z,81.59
2017-07-28T21:20:52.709Z,81.35
2017-07-28T21:23:21.060Z,81.08
2017-07-28T21:25:49.393Z,81.68
2017-07-28T21:28:18.246Z,81.62
2017-07-28T21:30:46.578Z,81.81
2017-07-28T21:33:15.708Z,81.46
2017-07-28T21:35:44.035Z,81.70
2017-07-28T21:38:12.377Z,81.85
2017-07-28T21:40:40.711Z,81.92
2017-07-28T21:43:09.824Z,81.84
2017-07-28T21:45:38.194Z,81.01
2017-07-28T21:48:06.506Z,81.16
2017-07-28T21:50:34.842Z,81.52
2017-07-28T21:53:03.949Z,81.59
2017-07-28T21:55:32.284Z,82.05
2017-07-28T21:58:00.926Z,80.99
2017-07-28T22:00:29.278Z,81.04
2017-07-28T22:02:58.407Z,80.83
2017-07-28T22:05:28.437Z,80.59
2017-07-28T22:07:56.904Z,80.57
2017-07-28T22:10:25.278Z,81.01
2017-07-28T22:12:53.637Z,81.14
2017-07-28T22:15:22.784Z,82.17
2017-07-28T22:17:51.458Z,82.02
2017-07-28T22:20:19.822Z,81.47
2017-07-28T22:22:48.177Z,81.31
2017-07-28T22:25:16.543Z,81.02
2017-07-28T22:27:44.894Z,81.42
2017-07-28T22:30:13.261Z,81.25
2017-07-28T22:32:41.596Z,81.96
2017-07-28T22:35:10.720Z,81.49
2017-07-28T22:37:39.070Z,81.04
2017-07-28T22:40:07.397Z,81.23
2017-07-28T22:42:35.762Z,81.38
2017-07-28T22:45:04.108Z,82.05
2017-07-28T22:47:33.248Z,82.46
2017-07-28T22:50:01.627Z,82.33
2017-07-28T22:52:29.944Z,82.37
2017-07-28T22:54:58.298Z,83.43
2017-07-28T22:57:26.654Z,82.90
2017-07-28T22:59:54.976Z,83.67
2017-07-28T23:02:23.707Z,83.53
2017-07-28T23:04:52.088Z,84.00
2017-07-28T23:07:21.220Z,83.63
2017-07-28T23:09:49.597Z,83.43
2017-07-28T23:12:17.931Z,84.12
2017-07-28T23:14:46.295Z,84.64
2017-07-28T23:17:14.629Z,84.65
2017-07-28T23:19:42.979Z,85.04
2017-07-28T23:22:12.084Z,84.59
2017-07-28T23:24:40.418Z,84.42
2017-07-28T23:27:08.768Z,83.82
2017-07-28T23:29:37.094Z,83.74
2017-07-28T23:32:05.861Z,83.58
2017-07-28T23:34:34.215Z,83.64
2017-07-28T23:37:02.624Z,84.27
2017-07-28T23:39:30.975Z,84.22
2017-07-28T23:41:59.293Z,84.40
2017-07-28T23:44:28.027Z,84.90
2017-07-28T23:46:56.392Z,84.95
2017-07-28T23:49:25.470Z,84.63
2017-07-28T23:51:53.818Z,84.87
2017-07-28T23:54:22.131Z,84.66
2017-07-28T23:56:51.231Z,84.31
2017-07-28T23:59:19.590Z,85.15
